Tiempo atmosférico en la estación meteorológica de Girona, Girona (79 m.)



Fecha
DESCASC
Temp. máxima en grados centígrados (hora)
DESCASC
Temp. mínima en grados centígrados (hora)
DESCASC
Temp. media en grados centígrados
DESCASC
Racha de viento máxima en m/sg (hora)
DESCASC
Velocidad máxima media en intervalos de 10 minutos(hora)
DESCASC
Precipitaciones diarias en mm
DESCASC
Precipitaciones de 00:00 a 06:00 en mm
DESCASC
Precipitaciones de 06:00 a 12:00 en mm
DESCASC
Precipitaciones de 12:00 a 18:00 en mm
DESCASC
Precipitaciones de 18:00 a 24:00 en mm
DESCASC
24-09-2020 30.5 (15:20) 16.1 (07:40) 23.3 9.44 (16:30) 4.44 (17:40) 0 0 0 0 0
23-09-2020 29.6 (15:30) 14.4 (00:00) 22 8.33 (16:50) 3.61 (17:40) 0 0 0 0 0
22-09-2020 26 (13:50) 15.7 (00:00) 20.8 7.5 (15:40) 3.89 (15:40) 0 0 0 0 0
21-09-2020 27.1 (13:30) 16.7 (00:00) 21.9 6.67 (14:20) 3.33 (14:20) 1.4 0 0 0.6 0.8
20-09-2020 27.4 (13:20) 16.6 (00:00) 22 6.39 (14:20) 2.78 (14:10) 0.2 0 0 0.2 0
19-09-2020 30.5 (14:10) 17.8 (00:00) 24.1 8.61 (13:30) 3.61 (14:30) 0 0 0 0 0
18-09-2020 26 (14:10) 19.8 (00:00) 22.9 4.72 (14:30) 3.06 (14:30) 0.8 0 0 0.8 0
17-09-2020 32.7 (16:20) 17.6 (00:00) 25.2 6.11 (17:10) 2.78 (15:40) 0 0 0 0 0
16-09-2020 33.4 (15:20) 18.6 (00:00) 26 6.11 (15:40) 2.78 (15:40) 0 0 0 0 0
15-09-2020 32.3 (15:30) 16.2 (00:00) 24.3 6.67 (12:30) 3.33 (15:50) 0 0 0 0 0
14-09-2020 33.3 (14:40) 16.4 (00:00) 24.8 6.94 (17:00) 3.33 (15:30) 0 0 0 0 0
13-09-2020 34.8 (16:30) 16.4 (00:00) 25.6 5.83 (17:10) 3.06 (16:50) 0 0 0 0 0
12-09-2020 33 (17:20) 18.4 (00:00) 25.7 6.11 (17:30) 2.78 (14:00) 0 0 0 0 0
11-09-2020 30.7 (16:00) 18.1 (00:00) 24.4 10.28 (15:00) 4.44 (15:00) 0.2 0.2 0 0 0
10-09-2020 27.7 (13:50) 15.4 (00:00) 21.6 9.17 (14:30) 4.17 (14:30) 1.4 0 0 1.4 0
09-09-2020 25.9 (14:00) 17.1 (00:00) 21.5 6.39 (08:40) 2.78 (10:00) 2.6 1.6 0 1 0
08-09-2020 26.9 (13:50) 12.6 (00:00) 19.8 8.61 (14:40) 3.33 (13:50) 2.6 0 0 2.6 0
07-09-2020 26.2 (15:10) 16.4 (04:40) 21.3 9.44 (17:40) 4.17 (17:40) 1.2 1.2 0 0 0
06-09-2020 25.6 (14:50) 18 (00:00) 21.8 5.83 (15:10) 2.78 (14:10) 0 0 0 0 0
05-09-2020 31.2 (15:30) 19.8 (00:00) 25.5 6.39 (17:10) 2.78 (16:20) 0 0 0 0 0
04-09-2020 31.8 (15:50) 16.4 (00:00) 24.1 6.39 (17:20) 3.33 (17:20) 0 0 0 0 0
03-09-2020 29.3 (15:50) 14.9 (00:00) 22.1 6.39 (16:00) 3.61 (17:50) 0 0 0 0 0
02-09-2020 28 (14:50) 15.9 (00:00) 21.9 5.83 (19:10) 2.5 (15:00) 0 0 0 0 0
01-09-2020 26.8 (14:40) 14 (00:00) 20.4 5.83 (14:10) 2.5 (15:00) 18.6 0 0 0 18.6
31-08-2020 27.9 (16:50) 12.6 (00:00) 20.3 5.28 (14:00) 2.22 (14:20) 0 0 0 0 0
30-08-2020 25.5 (13:30) 12.6 (00:00) 19.1 7.5 (17:40) 3.33 (19:00) 1.8 1.6 0 0 0.2
29-08-2020 23.3 (17:00) 14.7 (00:00) 19 10 (02:20) 4.17 (02:30) 4.2 2 2 0 0.2
28-08-2020 33.9 (14:40) 18.2 (00:00) 26.1 8.06 (23:20) 3.89 (18:10) 0.6 0 0 0 0.6
27-08-2020 32.8 (15:20) 21.2 (00:00) 27 7.78 (16:40) 4.17 (16:40) 0 0 0 0 0
26-08-2020 33.5 (15:10) 20.6 (00:00) 27.1 7.78 (15:50) 3.89 (14:30) 0 0 0 0 0

Gráficas

Temp. máximas Temp. mínimas Temp. medias Precipitaciones Rachas de viento máximas Velocidades máximas media en intervalos de 10 minutos

Datos horarios

Fecha y hora oficial Temperatura (ºC) Velocidad del viento (km/h) Dirección del viento Racha (km/h) Dirección de racha Precipitación (mm) Presión (hPa) Tendencia (hPa) Humedad (%)
2020-09-24 23:00:00 20.8 2 Nordeste 9 Nordeste 0 -- -- 63
2020-09-24 22:00:00 21.8 3 Sur 10 Sudoeste 0 -- -- 60
2020-09-24 21:00:00 23.3 8 Sudoeste 18 Sudoeste 0 -- -- 53
2020-09-24 20:00:00 24.5 4 Sudoeste 17 Oeste 0 -- -- 45
2020-09-24 19:00:00 26 7 Sudoeste 24 Sudoeste 0 -- -- 40
2020-09-24 18:00:00 26.7 10 Sudoeste 31 Sudoeste 0 -- -- 37
2020-09-24 17:00:00 27.9 11 Sudoeste 34 Sudoeste 0 -- -- 33
2020-09-24 16:00:00 29.6 13 Sudoeste 28 Sur 0 -- -- 37
2020-09-24 15:00:00 29.7 14 Sur 27 Sur 0 -- -- 34
2020-09-24 14:00:00 27.7 10 Sudeste 23 Sudeste 0 -- -- 55
2020-09-24 13:00:00 26.6 7 Sur 23 Sur 0 -- -- 57
2020-09-24 12:00:00 24.9 10 Sur 19 Sur 0 -- -- 59
2020-09-24 11:00:00 21.9 6 Sur 12 Sudoeste 0 -- -- 70
2020-09-24 10:00:00 19.5 4 Sur 8 Sudeste 0 -- -- 77
2020-09-24 09:00:00 17.4 2 Sudeste 4 Sudeste 0 -- -- 88
2020-09-24 08:00:00 16.1 0 Calma 3 Sudoeste 0 -- -- 92
2020-09-24 07:00:00 16.6 0 Calma 4 Norte 0 -- -- 92
2020-09-24 06:00:00 17 0 Calma 4 Norte 0 -- -- 90
2020-09-24 05:00:00 17.7 3 Sur 6 Sudoeste 0 -- -- 88
2020-09-24 04:00:00 18.5 0 Calma 5 Noroeste 0 -- -- 85
2020-09-24 03:00:00 19.4 0 Calma 10 Norte 0 -- -- 82
2020-09-24 02:00:00 20.1 4 Norte 14 Norte 0 -- -- 80
2020-09-24 01:00:00 19.8 3 Sudoeste 6 Sur 0 -- -- 85
2020-09-24 00:00:00 20.4 0 Calma 7 Sudeste 0 -- -- 80
2020-09-23 23:00:00 21.4 3 Nordeste 11 Sudeste 0 -- -- 77
2020-09-23 22:00:00 21.9 3 Sudeste 13 Sur 0 -- -- 77
2020-09-23 21:00:00 22.9 5 Sur 18 Sudeste 0 -- -- 74
2020-09-23 20:00:00 24 9 Sudeste 21 Sudeste 0 -- -- 70
2020-09-23 19:00:00 25.8 9 Sudeste 26 Sur 0 -- -- 61
2020-09-23 18:00:00 28.2 11 Sur 25 Sudeste 0 -- -- 51
2020-09-23 17:00:00 29.3 11 Sudeste 30 Sudeste 0 -- -- 48
2020-09-23 16:00:00 29.5 9 Sudeste 26 Sur 0 -- -- 47
2020-09-23 15:00:00 28.8 9 Sudeste 22 Este 0 -- -- 49
2020-09-23 14:00:00 27.8 7 Sudeste 17 Sudeste 0 -- -- 56
2020-09-23 13:00:00 26.4 6 Sur 18 Sur 0 -- -- 56
2020-09-23 12:00:00 24.2 7 Sudeste 15 Sudeste 0 -- -- 61
2020-09-23 11:00:00 20.8 3 Nordeste 6 Este 0 -- -- 71
2020-09-23 10:00:00 17.1 4 Sudeste 6 Sudeste 0 -- -- 88
2020-09-23 09:00:00 15.3 2 Noroeste 5 Este 0 -- -- 96
2020-09-23 08:00:00 14.5 0 Calma 4 Nordeste 0 -- -- 97
2020-09-23 07:00:00 14.5 0 Calma 3 Nordeste 0 -- -- 97
2020-09-23 06:00:00 14.9 3 Nordeste 6 Nordeste 0 -- -- 97
2020-09-23 05:00:00 15.3 0 Calma 6 Este 0 -- -- 95
2020-09-23 04:00:00 15.8 0 Calma 5 Sur 0 -- -- 94
2020-09-23 03:00:00 16.4 0 Calma 4 Nordeste 0 -- -- 93
2020-09-23 02:00:00 16.4 0 Calma 3 Noroeste 0 -- -- 93
2020-09-23 01:00:00 16.8 0 Calma 4 Norte 0 -- -- 90
2020-09-23 00:00:00 17.7 0 Calma 4 Noroeste 0 -- -- 87
2020-09-22 23:00:00 18.7 0 Calma 9 Noroeste 0 -- -- 82
2020-09-22 22:00:00 19.6 3 Noroeste 18 Norte 0 -- -- 79
2020-09-22 21:00:00 20.1 6 Noroeste 12 Noroeste 0 -- -- 77
2020-09-22 20:00:00 20.7 0 Calma 12 Sudeste 0 -- -- 71
2020-09-22 19:00:00 21.7 9 Sur 24 Sudeste 0 -- -- 68
2020-09-22 18:00:00 22.6 11 Sur 22 Sur 0 -- -- 70
2020-09-22 17:00:00 23.2 10 Sur 25 Sudeste 0 -- -- 72
2020-09-22 16:00:00 25.1 12 Sudeste 27 Sur 0 -- -- 61
2020-09-22 15:00:00 25.7 11 Sur 23 Sur 0 -- -- 56
2020-09-22 14:00:00 25.9 6 Sudoeste 16 Sudeste 0 -- -- 54
2020-09-22 13:00:00 23.8 3 Sudoeste 12 Sudoeste 0 -- -- 64
2020-09-22 12:00:00 22.4 2 Nordeste 8 Sur 0 -- -- 70
2020-09-22 11:00:00 20.6 3 Norte 8 Norte 0 -- -- 76
2020-09-22 10:00:00 18 2 Noroeste 5 Noroeste 0 -- -- 89
2020-09-22 09:00:00 16.3 0 Calma 4 Noroeste 0 -- -- 99
2020-09-22 08:00:00 15.8 0 Calma 4 Nordeste 0 -- -- 97
2020-09-22 07:00:00 16.1 0 Calma 3 Este 0 -- -- 96
2020-09-22 06:00:00 16.5 0 Calma 3 Sudeste 0 -- -- 96
2020-09-22 05:00:00 17 2 Sudeste 5 Sudeste 0 -- -- 93
2020-09-22 04:00:00 17.1 4 Sudoeste 7 Sudoeste 0 -- -- 93
2020-09-22 03:00:00 17.3 0 Calma 5 Sur 0 -- -- 93
2020-09-22 02:00:00 17.4 0 Calma 8 Norte 0 -- -- 92
2020-09-22 01:00:00 17.5 2 Sur 4 Norte 0 -- -- 93
2020-09-22 00:00:00 17.5 0 Calma 4 Noroeste 0 -- -- 92
2020-09-21 23:00:00 18 0 Calma 4 Sudoeste 0 -- -- 94
2020-09-21 22:00:00 18.7 0 Calma 5 Sudeste 0 -- -- 92
2020-09-21 21:00:00 19.3 2 Este 7 Sur 0.4 -- -- 89
2020-09-21 20:00:00 19.9 3 Oeste 10 Sudoeste 0.4 -- -- 82
2020-09-21 19:00:00 21.8 6 Sudoeste 11 Sur 0 -- -- 65
2020-09-21 18:00:00 22.4 0 Calma 14 Noroeste 0 -- -- 73
2020-09-21 17:00:00 22.3 3 Norte 12 Sudoeste 0 -- -- 72
2020-09-21 16:00:00 22.7 6 Sur 17 Sudeste 0 -- -- 74
2020-09-21 15:00:00 21.5 7 Sur 24 Sur 0.6 -- -- 78
2020-09-21 14:00:00 24.9 11 Sur 24 Sudeste 0 -- -- 62
2020-09-21 13:00:00 25.9 8 Sur 14 Sudoeste 0 -- -- 59
2020-09-21 12:00:00 23.4 2 Oeste 8 Sudeste 0 -- -- 67
2020-09-21 11:00:00 21.7 3 Sur 8 Sur 0 -- -- 73
2020-09-21 10:00:00 19.5 2 Sudoeste 6 Sudoeste 0 -- -- 84
2020-09-21 09:00:00 17.4 0 Calma 4 Nordeste 0 -- -- 93
2020-09-21 08:00:00 16.8 0 Calma 6 Noroeste 0 -- -- 94
2020-09-21 07:00:00 17.1 0 Calma 4 Nordeste 0 -- -- 94
2020-09-21 06:00:00 17.5 0 Calma 3 Nordeste 0 -- -- 94
2020-09-21 05:00:00 17.4 0 Calma 4 Norte 0 -- -- 93
2020-09-21 04:00:00 17.7 0 Calma 4 Sudoeste 0 -- -- 92
2020-09-21 03:00:00 18.4 0 Calma 3 Norte 0 -- -- 91
2020-09-21 02:00:00 18.8 0 Calma 6 Este 0 -- -- 88
2020-09-21 01:00:00 19 0 Calma 5 Noroeste 0 -- -- 88
2020-09-21 00:00:00 19.3 0 Calma 4 Noroeste 0 -- -- 88
2020-09-20 23:00:00 19.9 0 Calma 4 Sudoeste 0 -- -- 85
2020-09-20 22:00:00 21 0 Calma 7 Sudeste 0 -- -- 80
2020-09-20 21:00:00 21.8 3 Sur 10 Sudeste 0 -- -- 77
2020-09-20 20:00:00 22.5 6 Sudeste 14 Sur 0 -- -- 72
2020-09-20 19:00:00 23.7 5 Sur 15 Sudeste 0 -- -- 66
2020-09-20 18:00:00 24 5 Sudeste 19 Sudeste 0 -- -- 59
2020-09-20 17:00:00 24.1 7 Sudeste 19 Sudeste 0 -- -- 66
2020-09-20 16:00:00 23.1 7 Sudeste 20 Sudeste 0 -- -- 72
2020-09-20 15:00:00 23.7 8 Sudeste 23 Sur 0.2 -- -- 70
2020-09-20 14:00:00 26.6 9 Sur 19 Sudoeste 0 -- -- 50
2020-09-20 13:00:00 27 6 Sudoeste 14 Sudoeste 0 -- -- 48
2020-09-20 12:00:00 26.2 6 Sur 17 Sur 0 -- -- 52
2020-09-20 11:00:00 23.3 4 Sur 9 Sur 0 -- -- 61
2020-09-20 10:00:00 19.8 2 Nordeste 4 Sur 0 -- -- 71
2020-09-20 09:00:00 17.5 0 Calma 3 Sudeste 0 -- -- 85
2020-09-20 08:00:00 16.8 0 Calma 8 Sudoeste 0 -- -- 80
2020-09-20 07:00:00 17.4 0 Calma 4 Sur 0 -- -- 83
2020-09-20 06:00:00 18.3 2 Sudoeste 6 Sudoeste 0 -- -- 81
2020-09-20 05:00:00 19.5 0 Calma 6 Sudoeste 0 -- -- 78
2020-09-20 04:00:00 20.3 0 Calma 10 Norte 0 -- -- 75
2020-09-20 03:00:00 20.2 2 Sudoeste 7 Nordeste 0 -- -- 74
2020-09-20 02:00:00 21.4 3 Sur 14 Sudoeste 0 -- -- 68
2020-09-20 01:00:00 22.1 4 Sur 15 Sur 0 -- -- 66
2020-09-20 00:00:00 22.3 8 Sur 17 Sur 0 -- -- 66
2020-09-19 23:00:00 22 6 Sur 15 Sur 0 -- -- 78
2020-09-19 22:00:00 22.3 4 Sur 15 Sur 0 -- -- 79
2020-09-19 21:00:00 22.9 8 Sudeste 17 Sudeste 0 -- -- 74
2020-09-19 20:00:00 24 8 Sur 19 Sur 0 -- -- 69
2020-09-19 19:00:00 25.5 10 Sur 23 Sudeste 0 -- -- 62
2020-09-19 18:00:00 26.8 9 Sur 21 Sur 0 -- -- 57
2020-09-19 17:00:00 26.8 9 Sur 21 Sur 0 -- -- 64
2020-09-19 16:00:00 27.9 9 Sur 26 Sudeste 0 -- -- 55
2020-09-19 15:00:00 30.2 9 Sur 27 Sudeste 0 -- -- 48
2020-09-19 14:00:00 30.1 13 Sur 31 Sur 0 -- -- 47
2020-09-19 13:00:00 29.3 10 Sur 20 Sur 0 -- -- 51
2020-09-19 12:00:00 27.4 10 Sur 19 Sudeste 0 -- -- 59
2020-09-19 11:00:00 24.7 6 Sur 14 Sudeste 0 -- -- 66
2020-09-19 10:00:00 21 3 Sur 7 Sudoeste 0 -- -- 84
2020-09-19 09:00:00 18.9 0 Calma 6 Nordeste 0 -- -- 93
2020-09-19 08:00:00 17.8 0 Calma 4 Norte 0 -- -- 95
2020-09-19 07:00:00 18.5 3 Nordeste 5 Nordeste 0 -- -- 94
2020-09-19 06:00:00 18.6 0 Calma 4 Sudeste 0 -- -- 92
2020-09-19 05:00:00 19.1 0 Calma 4 Norte 0 -- -- 89
2020-09-19 04:00:00 19.3 0 Calma 4 Este 0 -- -- 85
2020-09-19 03:00:00 20.2 0 Calma 4 Sur 0 -- -- 81
2020-09-19 02:00:00 20.4 2 Sudoeste 4 Sur 0 -- -- 82
2020-09-19 01:00:00 20.4 0 Calma 5 Norte 0 -- -- 82
2020-09-19 00:00:00 21 0 Calma 3 Oeste 0 -- -- 79
2020-09-18 23:00:00 22 0 Calma 6 Sur 0 -- -- 75
2020-09-18 22:00:00 22.2 0 Calma 4 Este 0 -- -- 77
2020-09-18 21:00:00 23 0 Calma 5 Noroeste 0 -- -- 73
2020-09-18 20:00:00 23.5 0 Calma 5 Norte 0 -- -- 69
2020-09-18 19:00:00 24.5 3 Norte 6 Norte 0 -- -- 63
2020-09-18 18:00:00 26 0 Calma 9 Sudoeste 0 -- -- 54
2020-09-18 17:00:00 23.8 2 Sudeste 8 Nordeste 0 -- -- 64
2020-09-18 16:00:00 22.2 2 Norte 9 Noroeste 0.2 -- -- 71
2020-09-18 15:00:00 23.4 3 Noroeste 17 Sudoeste 0.6 -- -- 71
2020-09-18 14:00:00 25.9 6 Sudoeste 15 Sur 0 -- -- 60
2020-09-18 13:00:00 25.7 5 Sur 16 Sur 0 -- -- 61
2020-09-18 12:00:00 24.4 3 Sur 13 Sudeste 0 -- -- 64
2020-09-18 11:00:00 23.8 5 Sur 10 Sudoeste 0 -- -- 60
2020-09-18 10:00:00 22 2 Sudeste 9 Sudeste 0 -- -- 68
2020-09-18 09:00:00 21 2 Este 6 Este 0 -- -- 75
2020-09-18 08:00:00 20.2 0 Calma 6 Sudeste 0 -- -- 79
2020-09-18 07:00:00 20 2 Sur 5 Sur 0 -- -- 79
2020-09-18 06:00:00 20.3 0 Calma 6 Este 0 -- -- 81
2020-09-18 05:00:00 20.3 2 Sudeste 4 Sudeste 0 -- -- 84
2020-09-18 04:00:00 20.5 0 Calma 5 Nordeste 0 -- -- 82
2020-09-18 03:00:00 21.6 2 Sudeste 6 Sudoeste 0 -- -- 76
2020-09-18 02:00:00 22 0 Calma 6 Sudeste 0 -- -- 73
2020-09-18 01:00:00 22.7 3 Sur 6 Sudeste 0 -- -- 67
2020-09-18 00:00:00 23.5 4 Sudoeste 6 Sudeste 0 -- -- 64
2020-09-17 23:00:00 23.3 0 Calma 8 Sudoeste 0 -- -- 69
2020-09-17 22:00:00 24.5 5 Sur 12 Sudeste 0 -- -- 61
2020-09-17 21:00:00 25.2 5 Sudeste 14 Sudeste 0 -- -- 57
2020-09-17 20:00:00 26.7 5 Sudeste 15 Sudeste 0 -- -- 51
2020-09-17 19:00:00 28.6 7 Sudeste 17 Sur 0 -- -- 46
2020-09-17 18:00:00 30.8 7 Sur 22 Sur 0 -- -- 40
2020-09-17 17:00:00 31.9 9 Sur 17 Sudeste 0 -- -- 38
2020-09-17 16:00:00 32.2 8 Sur 21 Sudeste 0 -- -- 38
2020-09-17 15:00:00 32 5 Sur 14 Sudeste 0 -- -- 41
2020-09-17 14:00:00 31.6 7 Sur 18 Sudoeste 0 -- -- 42
2020-09-17 13:00:00 29.5 3 Sudoeste 9 Sudoeste 0 -- -- 41
2020-09-17 12:00:00 26.2 0 Calma 4 Oeste 0 -- -- 53
2020-09-17 11:00:00 25 0 Calma 6 Sudoeste 0 -- -- 56
2020-09-17 10:00:00 21.5 0 Calma 4 Nordeste 0 -- -- 70
2020-09-17 09:00:00 18.9 0 Calma 4 Nordeste 0 -- -- 80
2020-09-17 08:00:00 17.6 0 Calma 7 Sudeste 0 -- -- 87
2020-09-17 07:00:00 18 2 Nordeste 5 Este 0 -- -- 85
2020-09-17 06:00:00 18.2 0 Calma 5 Nordeste 0 -- -- 87
2020-09-17 05:00:00 18.9 0 Calma 5 Sudeste 0 -- -- 83
2020-09-17 04:00:00 19.3 0 Calma 5 Nordeste 0 -- -- 83
2020-09-17 03:00:00 20.1 3 Nordeste 5 Este 0 -- -- 81
2020-09-17 02:00:00 20.4 0 Calma 5 Sur 0 -- -- 84
2020-09-17 01:00:00 21.3 2 Nordeste 5 Nordeste 0 -- -- 77
2020-09-17 00:00:00 22.2 2 Sudeste 5 Nordeste 0 -- -- 73
2020-09-16 23:00:00 22.9 0 Calma 6 Este 0 -- -- 72
2020-09-16 22:00:00 24.1 2 Sudeste 8 Nordeste 0 -- -- 67
2020-09-16 21:00:00 25.1 4 Este 8 Este 0 -- -- 69
2020-09-16 20:00:00 26.2 3 Sur 13 Sur 0 -- -- 63
2020-09-16 19:00:00 27.4 7 Sur 14 Sur 0 -- -- 58
2020-09-16 18:00:00 28.9 7 Sur 17 Sur 0 -- -- 57
2020-09-16 17:00:00 32 8 Sur 18 Sudoeste 0 -- -- 45
2020-09-16 16:00:00 32.6 10 Sur 22 Sudeste 0 -- -- 44
2020-09-16 15:00:00 32.9 3 Este 14 Norte 0 -- -- 28
2020-09-16 14:00:00 32.2 2 Este 12 Sudeste 0 -- -- 38
2020-09-16 13:00:00 30.9 3 Sudoeste 10 Sudoeste 0 -- -- 46
2020-09-16 12:00:00 28 3 Sur 6 Sudoeste 0 -- -- 57
2020-09-16 11:00:00 24.5 2 Oeste 6 Noroeste 0 -- -- 71
2020-09-16 10:00:00 21.4 2 Noroeste 4 Sur 0 -- -- 84
2020-09-16 09:00:00 19.7 0 Calma 3 Noroeste 0 -- -- 91
2020-09-16 08:00:00 18.7 0 Calma 2 Oeste 0 -- -- 95
2020-09-16 07:00:00 18.9 0 Calma 2 Noroeste 0 -- -- 94
2020-09-16 06:00:00 19.4 2 Nordeste 4 Nordeste 0 -- -- 94
2020-09-16 05:00:00 19.6 0 Calma 3 Noroeste 0 -- -- 92
2020-09-16 04:00:00 20.1 0 Calma 3 Noroeste 0 -- -- 91
2020-09-16 03:00:00 20.6 0 Calma 4 Norte 0 -- -- 89
2020-09-16 02:00:00 21.1 0 Calma 3 Oeste 0 -- -- 89
2020-09-16 01:00:00 22.2 0 Calma 5 Sur 0 -- -- 88
2020-09-16 00:00:00 23.1 3 Sur 6 Sudeste 0 -- -- 84
2020-09-15 23:00:00 23.6 3 Sur 8 Sudeste 0 -- -- 82
2020-09-15 22:00:00 24.2 2 Sur 10 Sur 0 -- -- 77
2020-09-15 21:00:00 24.8 5 Sur 12 Sudeste 0 -- -- 72
2020-09-15 20:00:00 25.8 6 Sudeste 19 Sur 0 -- -- 65
2020-09-15 19:00:00 27.7 8 Sur 22 Este 0 -- -- 57
2020-09-15 18:00:00 29.9 10 Sur 23 Sudeste 0 -- -- 50
2020-09-15 17:00:00 31.7 9 Sur 22 Sur 0 -- -- 40
2020-09-15 16:00:00 31.9 11 Sur 22 Sudeste 0 -- -- 40
2020-09-15 15:00:00 31.7 10 Sudeste 22 Sudeste 0 -- -- 39
2020-09-15 14:00:00 30.6 8 Sur 19 Sudoeste 0 -- -- 41
2020-09-15 13:00:00 30.3 9 Sur 24 Sudoeste 0 -- -- 40
2020-09-15 12:00:00 28.3 6 Sudeste 19 Este 0 -- -- 47
2020-09-15 11:00:00 24.1 3 Sudeste 7 Nordeste 0 -- -- 60
2020-09-15 10:00:00 20 3 Noroeste 8 Noroeste 0 -- -- 75
2020-09-15 09:00:00 17.5 3 Sudeste 7 Sudeste 0 -- -- 86
2020-09-15 08:00:00 16.2 0 Calma 2 Noroeste 0 -- -- 91
2020-09-15 07:00:00 16.7 0 Calma 4 Sur 0 -- -- 90
2020-09-15 06:00:00 17.5 0 Calma 5 Sudeste 0 -- -- 88
2020-09-15 05:00:00 18.3 2 Sudeste 6 Sudeste 0 -- -- 88
2020-09-15 04:00:00 18.6 3 Sudeste 6 Este 0 -- -- 92
2020-09-15 03:00:00 18.9 0 Calma 4 Sudeste 0 -- -- 91
2020-09-15 02:00:00 19.1 0 Calma 3 Noroeste 0 -- -- 85
2020-09-15 01:00:00 20.3 0 Calma 5 Sur 0 -- -- 81
2020-09-15 00:00:00 21.6 2 Sur 8 Sudoeste 0 -- -- 83
2020-09-14 23:00:00 22.4 4 Sudoeste 7 Sur 0 -- -- 75
2020-09-14 22:00:00 23.4 4 Sur 11 Sudeste 0 -- -- 67
2020-09-14 21:00:00 24.8 3 Sur 13 Sur 0 -- -- 60
2020-09-14 20:00:00 26.4 5 Sur 22 Sudeste 0 -- -- 49
2020-09-14 19:00:00 28.6 9 Sudeste 22 Sur 0 -- -- 42
2020-09-14 18:00:00 30.8 9 Sudeste 21 Sudeste 0 -- -- 41
2020-09-14 17:00:00 31.6 10 Sudeste 25 Sur 0 -- -- 37
2020-09-14 16:00:00 32.2 12 Sur 24 Sur 0 -- -- 37
2020-09-14 15:00:00 33.1 9 Sur 22 Sudeste 0 -- -- 36
2020-09-14 14:00:00 32.7 8 Sur 15 Sur 0 -- -- 34
2020-09-14 13:00:00 31.1 7 Sur 15 Sudoeste 0 -- -- 37
2020-09-14 12:00:00 28.9 4 Sur 10 Sur 0 -- -- 44
2020-09-14 11:00:00 24.8 0 Calma 5 Sudoeste 0 -- -- 58
2020-09-14 10:00:00 20.3 0 Calma 3 Norte 0 -- -- 74
2020-09-14 09:00:00 17.6 0 Calma 4 Nordeste 0 -- -- 82
2020-09-14 08:00:00 16.6 2 Nordeste 4 Este 0 -- -- 83
2020-09-14 07:00:00 16.6 0 Calma 4 Este 0 -- -- 83
2020-09-14 06:00:00 16.8 3 Este 6 Este 0 -- -- 80
2020-09-14 05:00:00 17.6 0 Calma 4 Nordeste 0 -- -- 81
2020-09-14 04:00:00 17.7 0 Calma 4 Nordeste 0 -- -- 82
2020-09-14 03:00:00 18.2 0 Calma 2 Noroeste 0 -- -- 80
2020-09-14 02:00:00 19 0 Calma 5 Nordeste 0 -- -- 73
2020-09-14 01:00:00 19.8 0 Calma 4 Nordeste 0 -- -- 74
2020-09-14 00:00:00 20.7 0 Calma 2 Noroeste 0 -- -- 69
2020-09-13 23:00:00 22.1 0 Calma 6 Este 0 -- -- 61
2020-09-13 22:00:00 23.8 3 Sur 8 Sudoeste 0 -- -- 54
2020-09-13 21:00:00 25.8 3 Sur 6 Sudoeste 0 -- -- 49
2020-09-13 20:00:00 28.2 3 Sur 16 Sudeste 0 -- -- 41
2020-09-13 19:00:00 31.1 7 Sur 18 Sudeste 0 -- -- 35
2020-09-13 18:00:00 33 7 Sur 21 Sudeste 0 -- -- 33
2020-09-13 17:00:00 34.4 9 Sur 20 Sudeste 0 -- -- 32
2020-09-13 16:00:00 34.3 3 Oeste 11 Sudoeste 0 -- -- 29
2020-09-13 15:00:00 33.7 4 Este 12 Norte 0 -- -- 30
2020-09-13 14:00:00 32.5 4 Noroeste 11 Norte 0 -- -- 32
2020-09-13 13:00:00 31 5 Norte 12 Noroeste 0 -- -- 33
2020-09-13 12:00:00 29.6 4 Noroeste 12 Noroeste 0 -- -- 36
2020-09-13 11:00:00 25.6 0 Calma 5 Noroeste 0 -- -- 52
2020-09-13 10:00:00 21.3 0 Calma 5 Oeste 0 -- -- 70
2020-09-13 09:00:00 17.8 0 Calma 3 Nordeste 0 -- -- 83
2020-09-13 08:00:00 16.5 0 Calma 3 Nordeste 0 -- -- 87
2020-09-13 07:00:00 16.9 0 Calma 3 Nordeste 0 -- -- 85
2020-09-13 06:00:00 17.3 0 Calma 4 Norte 0 -- -- 82
2020-09-13 05:00:00 18 2 Nordeste 5 Nordeste 0 -- -- 79
2020-09-13 04:00:00 18.3 0 Calma 3 Norte 0 -- -- 79
2020-09-13 03:00:00 19.4 3 Nordeste 4 Nordeste 0 -- -- 73
2020-09-13 02:00:00 20 0 Calma 4 Este 0 -- -- 73
2020-09-13 01:00:00 20.5 0 Calma 3 Noroeste 0 -- -- 71
2020-09-13 00:00:00 21.4 0 Calma 4 Noroeste 0 -- -- 67
2020-09-12 23:00:00 22.6 0 Calma 6 Oeste 0 -- -- 62
2020-09-12 22:00:00 24 0 Calma 4 Sudeste 0 -- -- 58
2020-09-12 21:00:00 25.7 2 Sur 9 Sur 0 -- -- 49
2020-09-12 20:00:00 27.8 5 Sur 13 Sur 0 -- -- 42
2020-09-12 19:00:00 29.9 8 Sur 18 Sur 0 -- -- 37
2020-09-12 18:00:00 31.9 8 Sur 22 Sur 0 -- -- 34
2020-09-12 17:00:00 32.8 4 Norte 13 Noroeste 0 -- -- 29
2020-09-12 16:00:00 32.4 6 Norte 17 Este 0 -- -- 29
2020-09-12 15:00:00 32.1 4 Norte 21 Norte 0 -- -- 30
2020-09-12 14:00:00 31.5 10 Norte 18 Norte 0 -- -- 31
2020-09-12 13:00:00 31 8 Norte 19 Noroeste 0 -- -- 33
2020-09-12 12:00:00 29.2 8 Norte 14 Noroeste 0 -- -- 38
2020-09-12 11:00:00 25.6 2 Sudoeste 6 Oeste 0 -- -- 51
2020-09-12 10:00:00 22.2 0 Calma 6 Oeste 0 -- -- 64
2020-09-12 09:00:00 19.5 0 Calma 5 Nordeste 0 -- -- 80
2020-09-12 08:00:00 18.4 0 Calma 5 Nordeste 0 -- -- 86
2020-09-12 07:00:00 18.7 0 Calma 4 Este 0 -- -- 83
2020-09-12 06:00:00 19.3 2 Este 5 Este 0 -- -- 81
2020-09-12 05:00:00 19.1 0 Calma 5 Nordeste 0 -- -- 82
2020-09-12 04:00:00 19.2 2 Sudeste 6 Sur 0 -- -- 84
2020-09-12 03:00:00 19.1 0 Calma 3 Noroeste 0 -- -- 82
2020-09-12 02:00:00 20 0 Calma 4 Nordeste 0 -- -- 79
2020-09-12 01:00:00 20.4 0 Calma 3 Nordeste 0 -- -- 77
2020-09-12 00:00:00 20.9 0 Calma 4 Norte 0 -- -- 73
2020-09-11 23:00:00 21.9 0 Calma 5 Sudeste 0 -- -- 68
2020-09-11 22:00:00 23.1 3 Sudeste 6 Sudoeste 0 -- -- 62
2020-09-11 21:00:00 24.5 3 Este 6 Sur 0 -- -- 54
2020-09-11 20:00:00 26.2 4 Sur 12 Sur 0 -- -- 50
2020-09-11 19:00:00 28.2 4 Sur 18 Nordeste 0 -- -- 43
2020-09-11 18:00:00 29.7 7 Este 24 Nordeste 0 -- -- 38
2020-09-11 17:00:00 30.3 7 Nordeste 29 Norte 0 -- -- 38
2020-09-11 16:00:00 30.7 13 Nordeste 32 Norte 0 -- -- 36
2020-09-11 15:00:00 30.3 16 Norte 37 Noroeste 0 -- -- 36
2020-09-11 14:00:00 29.9 10 Norte 28 Norte 0 -- -- 39
2020-09-11 13:00:00 28.6 13 Norte 26 Norte 0 -- -- 42
2020-09-11 12:00:00 27.2 9 Norte 23 Norte 0 -- -- 47
2020-09-11 11:00:00 24.2 2 Noroeste 4 Nordeste 0 -- -- 65
2020-09-11 10:00:00 20.6 0 Calma 3 Norte 0 -- -- 80
2020-09-11 09:00:00 18.5 0 Calma 4 Sudoeste 0 -- -- 94
2020-09-11 08:00:00 18.2 0 Calma 4 Este 0 -- -- 98
2020-09-11 07:00:00 18.6 2 Este 4 Este 0 -- -- 96
2020-09-11 06:00:00 19 0 Calma 6 Sudoeste 0 -- -- 94
2020-09-11 05:00:00 19.2 0 Calma 6 Sudeste 0 -- -- 94
2020-09-11 04:00:00 19.5 3 Sudeste 7 Sudeste 0 -- -- 94
2020-09-11 03:00:00 20 0 Calma 5 Sudeste 0 -- -- 93
2020-09-11 02:00:00 20.3 2 Este 10 Sur 0 -- -- 94
2020-09-11 01:00:00 20.7 3 Oeste 5 Sudoeste 0.2 -- -- 90
2020-09-11 00:00:00 21 2 Nordeste 7 Nordeste 0 -- -- 86
2020-09-10 23:00:00 21.3 3 Sudeste 8 Este 0 -- -- 85
2020-09-10 22:00:00 21.7 3 Sur 9 Sudeste 0 -- -- 83
2020-09-10 21:00:00 22.3 3 Sudeste 9 Este 0 -- -- 80
2020-09-10 20:00:00 23.1 3 Sudeste 9 Sur 0 -- -- 78
2020-09-10 19:00:00 23.8 0 Calma 7 Sur 0 -- -- 76
2020-09-10 18:00:00 24.8 2 Este 20 Este 1.4 -- -- 71
2020-09-10 17:00:00 27.1 5 Norte 17 Este 0 -- -- 51
2020-09-10 16:00:00 26.2 6 Norte 26 Nordeste 0 -- -- 49
2020-09-10 15:00:00 26.6 12 Norte 33 Norte 0 -- -- 48
2020-09-10 14:00:00 27.6 12 Norte 30 Nordeste 0 -- -- 45
2020-09-10 13:00:00 26.6 10 Norte 24 Noroeste 0 -- -- 49
2020-09-10 12:00:00 26.2 5 Norte 12 Norte 0 -- -- 52
2020-09-10 11:00:00 23 2 Oeste 6 Sudoeste 0 -- -- 65
2020-09-10 10:00:00 19.1 2 Nordeste 5 Este 0 -- -- 81
2020-09-10 09:00:00 16.8 0 Calma 6 Nordeste 0 -- -- 92
2020-09-10 08:00:00 15.5 0 Calma 6 Nordeste 0 -- -- 99
2020-09-10 07:00:00 15.4 0 Calma 4 Norte 0 -- -- 99
2020-09-10 06:00:00 15.7 0 Calma 5 Nordeste 0 -- -- 99
2020-09-10 05:00:00 15.9 0 Calma 3 Este 0 -- -- 99
2020-09-10 04:00:00 16.1 0 Calma 2 Sudoeste 0 -- -- 98
2020-09-10 03:00:00 16.5 0 Calma 6 Oeste 0 -- -- 96
2020-09-10 02:00:00 17.1 0 Calma 3 Noroeste 0 -- -- 95
2020-09-10 01:00:00 17.6 0 Calma 4 Noroeste 0 -- -- 95
2020-09-10 00:00:00 18.2 0 Calma 3 Oeste 0 -- -- 93
2020-09-09 23:00:00 18.9 0 Calma 5 Noroeste 0 -- -- 91
2020-09-09 22:00:00 20 3 Sur 6 Este 0 -- -- 84
2020-09-09 21:00:00 21.2 0 Calma 6 Este 0 -- -- 78
2020-09-09 20:00:00 22.4 2 Nordeste 6 Nordeste 0 -- -- 71
2020-09-09 19:00:00 23.7 3 Este 11 Sudoeste 0 -- -- 70
2020-09-09 18:00:00 23.4 5 Sudoeste 10 Sudoeste 0 -- -- 74
2020-09-09 17:00:00 22.9 2 Oeste 10 Este 0.4 -- -- 76
2020-09-09 16:00:00 23.2 4 Este 19 Norte 0.6 -- -- 74
2020-09-09 15:00:00 25.6 7 Norte 18 Norte 0 -- -- 54
2020-09-09 14:00:00 25.9 7 Norte 17 Nordeste 0 -- -- 57
2020-09-09 13:00:00 24.1 5 Norte 15 Norte 0 -- -- 59
2020-09-09 12:00:00 22.1 8 Norte 19 Nordeste 0 -- -- 69
2020-09-09 11:00:00 21 7 Norte 19 Noroeste 0 -- -- 75
2020-09-09 10:00:00 20 10 Norte 20 Nordeste 0 -- -- 82
2020-09-09 09:00:00 19.4 5 Norte 23 Norte 0 -- -- 90
2020-09-09 08:00:00 18.3 4 Norte 9 Norte 0 -- -- 98
2020-09-09 07:00:00 18 2 Sudeste 10 Norte 0 -- -- 100
2020-09-09 06:00:00 17.7 2 Norte 4 Este 0.4 -- -- 100
2020-09-09 05:00:00 17.4 0 Calma 5 Sudoeste 0 -- -- 100
2020-09-09 04:00:00 17.3 0 Calma 4 Noroeste 0 -- -- 100
2020-09-09 03:00:00 17.2 0 Calma 4 Norte 0.8 -- -- 98
2020-09-09 02:00:00 17.1 2 Noroeste 8 Norte 0.4 -- -- 95
2020-09-09 01:00:00 17.2 0 Calma 5 Oeste 0 -- -- 92
2020-09-09 00:00:00 17.3 0 Calma 5 Norte 0 -- -- 93
2020-09-08 23:00:00 17.4 0 Calma 9 Norte 0 -- -- 92
2020-09-08 22:00:00 17.8 3 Nordeste 5 Nordeste 0 -- -- 90
2020-09-08 21:00:00 17.8 0 Calma 3 Noroeste 0 -- -- 88
2020-09-08 20:00:00 18.4 2 Norte 10 Norte 0 -- -- 85
2020-09-08 19:00:00 18.5 2 Norte 10 Norte 0 -- -- 84
2020-09-08 18:00:00 17.8 4 Norte 16 Norte 0.6 -- -- 87
2020-09-08 17:00:00 19 7 Norte 21 Nordeste 1.2 -- -- 74
2020-09-08 16:00:00 21.3 10 Norte 23 Nordeste 0.8 -- -- 61
2020-09-08 15:00:00 25.6 9 Nordeste 31 Norte 0 -- -- 38
2020-09-08 14:00:00 26.2 12 Norte 28 Norte 0 -- -- 36
2020-09-08 13:00:00 26.4 8 Norte 23 Norte 0 -- -- 36
2020-09-08 12:00:00 24.2 8 Norte 22 Norte 0 -- -- 40
2020-09-08 11:00:00 23.2 9 Norte 24 Norte 0 -- -- 40
2020-09-08 10:00:00 22.2 11 Norte 26 Norte 0 -- -- 43
2020-09-08 09:00:00 16.7 3 Noroeste 7 Sudoeste 0 -- -- 66
2020-09-08 08:00:00 13 0 Calma 4 Noroeste 0 -- -- 82
2020-09-08 07:00:00 12.8 0 Calma 3 Noroeste 0 -- -- 80
2020-09-08 06:00:00 12.8 0 Calma 5 Norte 0 -- -- 79
2020-09-08 05:00:00 13.1 0 Calma 6 Sudoeste 0 -- -- 79
2020-09-08 04:00:00 13.3 0 Calma 4 Sudoeste 0 -- -- 78
2020-09-08 03:00:00 13.6 0 Calma 5 Oeste 0 -- -- 77
2020-09-08 02:00:00 14.5 0 Calma 3 Noroeste 0 -- -- 83
2020-09-08 01:00:00 15.7 0 Calma 4 Nordeste 0 -- -- 78
2020-09-08 00:00:00 16.4 0 Calma 9 Sudeste 0 -- -- 78
2020-09-07 23:00:00 17.5 4 Sur 9 Sudeste 0 -- -- 71
2020-09-07 22:00:00 18.3 0 Calma 5 Noroeste 0 -- -- 74
2020-09-07 21:00:00 19.7 0 Calma 8 Oeste 0 -- -- 69
2020-09-07 20:00:00 21.7 0 Calma 10 Sudoeste 0 -- -- 52
2020-09-07 19:00:00 23.1 4 Sur 22 Sudoeste 0 -- -- 57
2020-09-07 18:00:00 24.1 4 Noroeste 34 Norte 0 -- -- 42
2020-09-07 17:00:00 23.9 5 Sudoeste 16 Sur 0 -- -- 50
2020-09-07 16:00:00 25.7 7 Sudeste 26 Sudoeste 0 -- -- 43
2020-09-07 15:00:00 25.8 12 Sudoeste 27 Sudoeste 0 -- -- 41
2020-09-07 14:00:00 25.2 7 Sur 17 Sudoeste 0 -- -- 40
2020-09-07 13:00:00 23.8 8 Sur 18 Sudoeste 0 -- -- 45
2020-09-07 12:00:00 22.1 8 Sudeste 18 Sur 0 -- -- 54
2020-09-07 11:00:00 19.6 2 Este 6 Sur 0 -- -- 63
2020-09-07 10:00:00 18.2 0 Calma 6 Norte 0 -- -- 79
2020-09-07 09:00:00 17.3 0 Calma 3 Noroeste 0 -- -- 81
2020-09-07 08:00:00 16.8 0 Calma 6 Norte 0 -- -- 81
2020-09-07 07:00:00 16.8 2 Norte 5 Norte 0 -- -- 75
2020-09-07 06:00:00 16.6 0 Calma 11 Norte 0 -- -- 76
2020-09-07 05:00:00 16.4 3 Norte 10 Norte 0 -- -- 74
2020-09-07 04:00:00 16.6 4 Norte 14 Nordeste 1 -- -- 81
2020-09-07 03:00:00 17.7 0 Calma 10 Nordeste 0 -- -- 82
2020-09-07 02:00:00 18 3 Noroeste 13 Noroeste 0.2 -- -- 80
2020-09-07 01:00:00 17.9 3 Norte 12 Norte 0 -- -- 76
2020-09-07 00:00:00 18 3 Sudeste 15 Nordeste 0 -- -- 80
2020-09-06 23:00:00 18.5 8 Norte 18 Norte 0 -- -- 81
2020-09-06 22:00:00 18.8 7 Norte 15 Norte 0 -- -- 80
2020-09-06 21:00:00 19.3 5 Norte 19 Norte 0 -- -- 79
2020-09-06 20:00:00 20.2 8 Norte 21 Norte 0 -- -- 66
2020-09-06 19:00:00 22.6 8 Norte 19 Norte 0 -- -- 53
2020-09-06 18:00:00 23.4 6 Norte 15 Nordeste 0 -- -- 53
2020-09-06 17:00:00 23.7 6 Norte 18 Norte 0 -- -- 53
2020-09-06 16:00:00 24.4 8 Norte 21 Norte 0 -- -- 53
2020-09-06 15:00:00 25.6 5 Nordeste 18 Norte 0 -- -- 53
2020-09-06 14:00:00 25.1 8 Norte 18 Norte 0 -- -- 56
2020-09-06 13:00:00 24.6 7 Norte 18 Norte 0 -- -- 57
2020-09-06 12:00:00 23.6 8 Norte 20 Noroeste 0 -- -- 59
2020-09-06 11:00:00 23.4 5 Norte 20 Norte 0 -- -- 64
2020-09-06 10:00:00 22.5 6 Norte 14 Norte 0 -- -- 66
2020-09-06 09:00:00 20.4 0 Calma 4 Norte 0 -- -- 90
2020-09-06 08:00:00 19.4 0 Calma 3 Sudoeste 0 -- -- 96
2020-09-06 07:00:00 19.5 2 Noroeste 6 Noroeste 0 -- -- 93
2020-09-06 06:00:00 20 0 Calma 5 Este 0 -- -- 90
2020-09-06 05:00:00 20.1 0 Calma 3 Sur 0 -- -- 90
2020-09-06 04:00:00 20.1 0 Calma 5 Sudoeste 0 -- -- 90
2020-09-06 03:00:00 20.3 0 Calma 4 Nordeste 0 -- -- 89
2020-09-06 02:00:00 20.9 0 Calma 5 Sudoeste 0 -- -- 85
2020-09-06 01:00:00 21.5 4 Sudoeste 8 Sudoeste 0 -- -- 85
2020-09-06 00:00:00 22 2 Sudeste 6 Sudeste 0 -- -- 81
2020-09-05 23:00:00 22.6 2 Sur 6 Sudeste 0 -- -- 79
2020-09-05 22:00:00 23.3 3 Sur 9 Sudeste 0 -- -- 77
2020-09-05 21:00:00 24.2 5 Sur 13 Sudoeste 0 -- -- 74
2020-09-05 20:00:00 25.4 7 Sur 17 Sur 0 -- -- 68
2020-09-05 19:00:00 27.7 8 Sur 20 Sur 0 -- -- 60
2020-09-05 18:00:00 29 9 Sur 23 Sudoeste 0 -- -- 56
2020-09-05 17:00:00 30.3 9 Sur 22 Sudoeste 0 -- -- 50
2020-09-05 16:00:00 31 8 Sur 17 Sudeste 0 -- -- 47
2020-09-05 15:00:00 30.4 5 Sur 11 Sudoeste 0 -- -- 47
2020-09-05 14:00:00 28.6 4 Sur 9 Sudeste 0 -- -- 50
2020-09-05 13:00:00 26.7 2 Norte 8 Nordeste 0 -- -- 61
2020-09-05 12:00:00 25.3 3 Sur 12 Norte 0 -- -- 65
2020-09-05 11:00:00 24.1 4 Norte 9 Norte 0 -- -- 75
2020-09-05 10:00:00 22.6 3 Noroeste 9 Norte 0 -- -- 80
2020-09-05 09:00:00 21 3 Norte 6 Norte 0 -- -- 85
2020-09-05 08:00:00 20.3 0 Calma 7 Noroeste 0 -- -- 89
2020-09-05 07:00:00 20.1 0 Calma 4 Norte 0 -- -- 90
2020-09-05 06:00:00 19.9 0 Calma 3 Sudoeste 0 -- -- 91
2020-09-05 05:00:00 20.1 0 Calma 5 Norte 0 -- -- 87
2020-09-05 04:00:00 20.2 3 Noroeste 6 Norte 0 -- -- 87
2020-09-05 03:00:00 20.6 2 Noroeste 8 Norte 0 -- -- 85
2020-09-05 02:00:00 20.9 3 Noroeste 6 Noroeste 0 -- -- 83
2020-09-05 01:00:00 21.2 0 Calma 7 Noroeste 0 -- -- 81
2020-09-05 00:00:00 21.6 3 Noroeste 9 Norte 0 -- -- 80
2020-09-04 23:00:00 22.3 2 Norte 8 Sudeste 0 -- -- 81
2020-09-04 22:00:00 22.9 2 Sur 10 Sudeste 0 -- -- 78
2020-09-04 21:00:00 23.8 6 Sudeste 14 Sudeste 0 -- -- 75
2020-09-04 20:00:00 25.1 7 Sudeste 18 Sur 0 -- -- 68
2020-09-04 19:00:00 26.6 9 Sur 20 Sudeste 0 -- -- 60
2020-09-04 18:00:00 28.6 11 Sudeste 23 Sur 0 -- -- 55
2020-09-04 17:00:00 30.2 11 Sur 21 Sudoeste 0 -- -- 51
2020-09-04 16:00:00 31.3 6 Sudeste 15 Sudeste 0 -- -- 47
2020-09-04 15:00:00 30.7 6 Sudoeste 11 Norte 0 -- -- 39
2020-09-04 14:00:00 30.4 4 Oeste 13 Sudoeste 0 -- -- 41
2020-09-04 13:00:00 29.2 9 Sudoeste 15 Sudoeste 0 -- -- 42
2020-09-04 12:00:00 27.3 3 Sudeste 10 Sudoeste 0 -- -- 45
2020-09-04 11:00:00 24.3 2 Oeste 5 Norte 0 -- -- 64
2020-09-04 10:00:00 20.5 0 Calma 3 Noroeste 0 -- -- 82
2020-09-04 09:00:00 17.6 0 Calma 2 Este 0 -- -- 97
2020-09-04 08:00:00 16.5 0 Calma 3 Noroeste 0 -- -- 98
2020-09-04 07:00:00 16.5 0 Calma 5 Sudoeste 0 -- -- 97
2020-09-04 06:00:00 16.9 0 Calma 4 Noroeste 0 -- -- 93
2020-09-04 05:00:00 17.6 0 Calma 5 Nordeste 0 -- -- 92
2020-09-04 04:00:00 17.7 2 Nordeste 4 Nordeste 0 -- -- 92
2020-09-04 03:00:00 18.2 0 Calma 2 Noroeste 0 -- -- 89
2020-09-04 02:00:00 19.1 0 Calma 4 Nordeste 0 -- -- 85
2020-09-04 01:00:00 19.8 0 Calma 5 Sudeste 0 -- -- 81
2020-09-04 00:00:00 20.4 3 Sudoeste 5 Sur 0 -- -- 79
2020-09-03 23:00:00 21.4 0 Calma 5 Sudoeste 0 -- -- 72
2020-09-03 22:00:00 22.3 2 Sudeste 8 Sudeste 0 -- -- 67
2020-09-03 21:00:00 23 5 Sudeste 13 Sur 0 -- -- 64
2020-09-03 20:00:00 24.1 8 Sur 23 Sudeste 0 -- -- 58
2020-09-03 19:00:00 26 8 Sur 23 Este 0 -- -- 52
2020-09-03 18:00:00 27.4 11 Sudeste 23 Sudeste 0 -- -- 49
2020-09-03 17:00:00 28.5 10 Sur 23 Sur 0 -- -- 46
2020-09-03 16:00:00 29.2 11 Sur 23 Sur 0 -- -- 46
2020-09-03 15:00:00 28.7 6 Sur 21 Sudoeste 0 -- -- 46
2020-09-03 14:00:00 27.7 4 Nordeste 13 Sudoeste 0 -- -- 45
2020-09-03 13:00:00 27.2 3 Oeste 11 Sudoeste 0 -- -- 45
2020-09-03 12:00:00 25.8 3 Nordeste 10 Norte 0 -- -- 47
2020-09-03 11:00:00 22.7 2 Norte 5 Nordeste 0 -- -- 52
2020-09-03 10:00:00 18.5 0 Calma 5 Norte 0 -- -- 76
2020-09-03 09:00:00 16.1 0 Calma 3 Noroeste 0 -- -- 88
2020-09-03 08:00:00 15.1 0 Calma 3 Sur 0 -- -- 90
2020-09-03 07:00:00 14.9 0 Calma 2 Noroeste 0 -- -- 90
2020-09-03 06:00:00 15.4 0 Calma 3 Noroeste 0 -- -- 89
2020-09-03 05:00:00 15.9 0 Calma 3 Sudoeste 0 -- -- 86
2020-09-03 04:00:00 16.6 0 Calma 5 Este 0 -- -- 90
2020-09-03 03:00:00 16.8 0 Calma 3 Noroeste 0 -- -- 86
2020-09-03 02:00:00 17.8 0 Calma 5 Norte 0 -- -- 90
2020-09-03 01:00:00 19.1 0 Calma 5 Noroeste 0 -- -- 86
2020-09-03 00:00:00 20.7 0 Calma 6 Noroeste 0 -- -- 79
2020-09-02 23:00:00 21.4 2 Nordeste 6 Norte 0 -- -- 74
2020-09-02 22:00:00 21.8 2 Nordeste 5 Este 0 -- -- 72
2020-09-02 21:00:00 22.7 4 Sudeste 13 Sudeste 0 -- -- 69
2020-09-02 20:00:00 23.9 7 Sur 21 Sudeste 0 -- -- 63
2020-09-02 19:00:00 25.9 9 Sur 19 Sur 0 -- -- 55
2020-09-02 18:00:00 26 8 Sur 21 Sudeste 0 -- -- 52
2020-09-02 17:00:00 25.3 5 Este 16 Este 0 -- -- 55
2020-09-02 16:00:00 25.5 6 Este 17 Este 0 -- -- 52
2020-09-02 15:00:00 27.3 9 Sur 20 Sudeste 0 -- -- 46
2020-09-02 14:00:00 27 6 Sudeste 17 Sudoeste 0 -- -- 47
2020-09-02 13:00:00 26.7 7 Sudoeste 16 Sur 0 -- -- 47
2020-09-02 12:00:00 24.6 4 Sur 11 Sudeste 0 -- -- 52
2020-09-02 11:00:00 21.4 2 Noroeste 4 Norte 0 -- -- 69
2020-09-02 10:00:00 18.6 0 Calma 4 Sudoeste 0 -- -- 89
2020-09-02 09:00:00 16.8 0 Calma 4 Este 0 -- -- 100
2020-09-02 08:00:00 16.3 2 Este 4 Sudeste 0 -- -- 100
2020-09-02 07:00:00 16.1 0 Calma 4 Sudoeste 0 -- -- 100
2020-09-02 06:00:00 16.2 0 Calma 4 Nordeste 0 -- -- 100
2020-09-02 05:00:00 16.3 0 Calma 6 Sudoeste 0 -- -- 100
2020-09-02 04:00:00 16.4 0 Calma 5 Este 0 -- -- 100
2020-09-02 03:00:00 16.4 2 Este 5 Sudeste 0 -- -- 100
2020-09-02 02:00:00 16.9 2 Sur 4 Sur 0 -- -- 99
2020-09-02 01:00:00 17 0 Calma 8 Sudeste 0 -- -- 98
2020-09-02 00:00:00 17.1 2 Sudeste 5 Sudeste 0.2 -- -- 97
2020-09-01 23:00:00 17.2 2 Noroeste 6 Este 4.2 -- -- 97
2020-09-01 22:00:00 17.4 2 Noroeste 8 Sur 4.8 -- -- 93
2020-09-01 21:00:00 18.4 2 Oeste 16 Norte 9.4 -- -- 87
2020-09-01 20:00:00 23 4 Sudeste 14 Sudeste 0 -- -- 65
2020-09-01 19:00:00 24.2 7 Sudeste 18 Sur 0 -- -- 61
2020-09-01 18:00:00 24.2 8 Sur 18 Sur 0 -- -- 60
2020-09-01 17:00:00 25.1 9 Sur 19 Sudoeste 0 -- -- 56
2020-09-01 16:00:00 25.7 9 Sur 18 Sur 0 -- -- 53
2020-09-01 15:00:00 26.1 9 Sur 21 Sur 0 -- -- 50
2020-09-01 14:00:00 26.6 8 Sudeste 17 Sudeste 0 -- -- 46
2020-09-01 13:00:00 25.7 8 Sur 15 Sudoeste 0 -- -- 46
2020-09-01 12:00:00 23.7 3 Oeste 10 Sudoeste 0 -- -- 48
2020-09-01 11:00:00 22 2 Oeste 6 Sudoeste 0 -- -- 54
2020-09-01 10:00:00 17.8 0 Calma 5 Oeste 0 -- -- 72
2020-09-01 09:00:00 15.2 0 Calma 3 Oeste 0 -- -- 84
2020-09-01 08:00:00 14.2 0 Calma 3 Oeste 0 -- -- 86
2020-09-01 07:00:00 14.3 0 Calma 3 Nordeste 0 -- -- 88
2020-09-01 06:00:00 14.7 0 Calma 4 Nordeste 0 -- -- 86
2020-09-01 05:00:00 15.5 0 Calma 4 Norte 0 -- -- 80
2020-09-01 04:00:00 15.9 0 Calma 5 Este 0 -- -- 79
2020-09-01 03:00:00 16.2 0 Calma 5 Noroeste 0 -- -- 79
2020-09-01 02:00:00 16.5 0 Calma 7 Sudoeste 0 -- -- 77
2020-09-01 01:00:00 16.9 2 Noroeste 5 Noroeste 0 -- -- 77
2020-09-01 00:00:00 17.5 0 Calma 4 Noroeste 0 -- -- 76
2020-08-31 23:00:00 18.9 0 Calma 3 Sudoeste 0 -- -- 71
2020-08-31 22:00:00 20.3 2 Noroeste 8 Noroeste 0 -- -- 64
2020-08-31 21:00:00 21.7 2 Nordeste 10 Nordeste 0 -- -- 59
2020-08-31 20:00:00 23.4 4 Este 14 Este 0 -- -- 54
2020-08-31 19:00:00 25.5 5 Este 16 Este 0 -- -- 45
2020-08-31 18:00:00 25.2 3 Noroeste 12 Noroeste 0 -- -- 40
2020-08-31 17:00:00 27.9 5 Este 14 Sudoeste 0 -- -- 35
2020-08-31 16:00:00 27.2 8 Sur 16 Sudeste 0 -- -- 37
2020-08-31 15:00:00 26.9 5 Sudeste 18 Sudeste 0 -- -- 35
2020-08-31 14:00:00 26.1 7 Sur 19 Sudeste 0 -- -- 39
2020-08-31 13:00:00 24.7 6 Sudoeste 16 Sudoeste 0 -- -- 43
2020-08-31 12:00:00 23.4 7 Sur 17 Sudeste 0 -- -- 48
2020-08-31 11:00:00 20.5 3 Sudoeste 8 Sudoeste 0 -- -- 58
2020-08-31 10:00:00 16.4 3 Sur 6 Sur 0 -- -- 78
2020-08-31 09:00:00 13.7 0 Calma 5 Sur 0 -- -- 92
2020-08-31 08:00:00 12.7 0 Calma 4 Norte 0 -- -- 94
2020-08-31 07:00:00 12.8 0 Calma 4 Noroeste 0 -- -- 95
2020-08-31 06:00:00 13 0 Calma 3 Noroeste 0 -- -- 96
2020-08-31 05:00:00 13.4 0 Calma 8 Sudeste 0 -- -- 95
2020-08-31 04:00:00 13.9 2 Este 5 Nordeste 0 -- -- 93
2020-08-31 03:00:00 14.6 0 Calma 5 Noroeste 0 -- -- 94
2020-08-31 02:00:00 15.2 0 Calma 4 Sur 0 -- -- 93
2020-08-31 01:00:00 16 2 Este 8 Sur 0 -- -- 89
2020-08-31 00:00:00 16.5 4 Sudeste 8 Sudeste 0 -- -- 87
2020-08-30 23:00:00 16.5 2 Sur 6 Sur 0.2 -- -- 87
2020-08-30 22:00:00 16.5 0 Calma 10 Este 0 -- -- 86
2020-08-30 21:00:00 16.8 4 Sur 11 Sudoeste 0 -- -- 82
2020-08-30 20:00:00 16.9 2 Oeste 15 Sur 0 -- -- 80
2020-08-30 19:00:00 17.8 12 Sudoeste 24 Sudoeste 0 -- -- 73
2020-08-30 18:00:00 19.8 9 Sur 27 Sur 0 -- -- 59
2020-08-30 17:00:00 22.9 8 Sudeste 22 Este 0 -- -- 49
2020-08-30 16:00:00 22.9 8 Sudeste 23 Este 0 -- -- 50
2020-08-30 15:00:00 23.6 6 Sudeste 21 Sudeste 0 -- -- 42
2020-08-30 14:00:00 24.1 3 Este 13 Sur 0 -- -- 46
2020-08-30 13:00:00 24.8 6 Sur 14 Sudoeste 0 -- -- 45
2020-08-30 12:00:00 22.6 3 Nordeste 8 Nordeste 0 -- -- 47
2020-08-30 11:00:00 19.9 0 Calma 5 Sudeste 0 -- -- 64
2020-08-30 10:00:00 16.4 0 Calma 5 Sudoeste 0 -- -- 77
2020-08-30 09:00:00 13.9 0 Calma 6 Norte 0 -- -- 93
2020-08-30 08:00:00 12.7 0 Calma 6 Este 0 -- -- 96
2020-08-30 07:00:00 12.8 0 Calma 8 Sur 0 -- -- 96
2020-08-30 06:00:00 13.2 0 Calma 5 Nordeste 0 -- -- 95
2020-08-30 05:00:00 13.7 3 Sudeste 7 Este 0 -- -- 94
2020-08-30 04:00:00 14.2 2 Sur 9 Norte 0 -- -- 92
2020-08-30 03:00:00 15.2 3 Nordeste 15 Nordeste 1 -- -- 88
2020-08-30 02:00:00 17.1 3 Oeste 10 Noroeste 0.6 -- -- 76
2020-08-30 01:00:00 17.5 2 Noroeste 8 Noroeste 0 -- -- 77
2020-08-30 00:00:00 17.6 3 Sudeste 9 Sudeste 0 -- -- 81
2020-08-29 23:00:00 17.9 0 Calma 6 Este 0 -- -- 79
2020-08-29 22:00:00 18.4 2 Nordeste 7 Sur 0 -- -- 74
2020-08-29 21:00:00 18.8 0 Calma 7 Oeste 0 -- -- 73
2020-08-29 20:00:00 19.2 2 Sudeste 13 Sudeste 0 -- -- 66
2020-08-29 19:00:00 20.7 2 Sudeste 17 Norte 0.2 -- -- 57
2020-08-29 18:00:00 22.3 5 Norte 23 Norte 0 -- -- 46
2020-08-29 17:00:00 23.3 6 Norte 20 Norte 0 -- -- 49
2020-08-29 16:00:00 22.3 7 Norte 16 Norte 0 -- -- 58
2020-08-29 15:00:00 21 5 Norte 17 Norte 0 -- -- 66
2020-08-29 14:00:00 19.5 9 Norte 17 Norte 0 -- -- 71
2020-08-29 13:00:00 18.3 4 Nordeste 16 Noroeste 0 -- -- 73
2020-08-29 12:00:00 17.5 0 Calma 9 Nordeste 0 -- -- 83
2020-08-29 11:00:00 16.5 3 Noroeste 11 Nordeste 0.2 -- -- 86
2020-08-29 10:00:00 15.6 6 Norte 13 Norte 0 -- -- 90
2020-08-29 09:00:00 15 6 Noroeste 21 Noroeste 0.6 -- -- 93
2020-08-29 08:00:00 15.1 8 Norte 24 Norte 0.4 -- -- 88
2020-08-29 07:00:00 14.8 8 Norte 22 Norte 0.8 -- -- 88
2020-08-29 06:00:00 15.6 8 Norte 28 Norte 1.4 -- -- 83
2020-08-29 05:00:00 16.6 14 Norte 30 Norte 0 -- -- 76
2020-08-29 04:00:00 16.8 8 Norte 33 Norte 0.6 -- -- 80
2020-08-29 03:00:00 18.1 10 Norte 36 Norte 0 -- -- 71
2020-08-29 02:00:00 17.9 10 Norte 28 Norte 0 -- -- 72
2020-08-29 01:00:00 17.7 11 Norte 26 Norte 0 -- -- 76
2020-08-29 00:00:00 18.2 8 Norte 29 Nordeste 0.4 -- -- 75
2020-08-28 23:00:00 20.2 7 Norte 21 Norte 0.2 -- -- 65
2020-08-28 22:00:00 20.8 9 Norte 20 Nordeste 0 -- -- 62
2020-08-28 21:00:00 21 5 Norte 23 Nordeste 0 -- -- 62
2020-08-28 20:00:00 21.8 9 Norte 28 Noroeste 0 -- -- 63
2020-08-28 19:00:00 23.6 6 Norte 27 Norte 0 -- -- 61
2020-08-28 18:00:00 26.1 10 Norte 24 Este 0 -- -- 56
2020-08-28 17:00:00 27.8 8 Nordeste 26 Nordeste 0 -- -- 58
2020-08-28 16:00:00 29.5 9 Nordeste 27 Nordeste 0 -- -- 56
2020-08-28 15:00:00 33.1 6 Sur 19 Sur 0 -- -- 36
2020-08-28 14:00:00 33.2 8 Sur 18 Sur 0 -- -- 41
2020-08-28 13:00:00 32.6 10 Sur 20 Sudoeste 0 -- -- 40
2020-08-28 12:00:00 30.9 5 Este 17 Sudoeste 0 -- -- 48
2020-08-28 11:00:00 28.4 3 Oeste 9 Sudoeste 0 -- -- 63
2020-08-28 10:00:00 24.7 2 Oeste 6 Sudeste 0 -- -- 85
2020-08-28 09:00:00 22.7 3 Este 6 Este 0 -- -- 94
2020-08-28 08:00:00 21.9 0 Calma 5 Sudeste 0 -- -- 94
2020-08-28 07:00:00 21.8 0 Calma 6 Sudoeste 0 -- -- 95
2020-08-28 06:00:00 22.2 0 Calma 4 Sudeste 0 -- -- 95
2020-08-28 05:00:00 22.6 0 Calma 6 Este 0 -- -- 93
2020-08-28 04:00:00 23.2 0 Calma 5 Sudeste 0 -- -- 92
2020-08-28 03:00:00 23.6 0 Calma 6 Sudoeste 0 -- -- 90
2020-08-28 02:00:00 24.4 0 Calma 4 Sur 0 -- -- 88
2020-08-28 01:00:00 25.1 0 Calma 9 Sur 0 -- -- 84
2020-08-28 00:00:00 25.5 5 Sudeste 9 Sudeste 0 -- -- 82
2020-08-27 23:00:00 25.8 3 Sudeste 11 Sudeste 0 -- -- 79
2020-08-27 22:00:00 26.3 3 Sudeste 12 Sur 0 -- -- 76
2020-08-27 21:00:00 26.9 5 Sur 17 Sudeste 0 -- -- 72
2020-08-27 20:00:00 28.2 8 Sur 22 Sudeste 0 -- -- 67
2020-08-27 19:00:00 29.7 9 Sudeste 24 Este 0 -- -- 62
2020-08-27 18:00:00 31 10 Sur 26 Sudeste 0 -- -- 58
2020-08-27 17:00:00 31.9 14 Sur 28 Sur 0 -- -- 55
2020-08-27 16:00:00 32.1 12 Sur 23 Oeste 0 -- -- 54
2020-08-27 15:00:00 32.1 10 Sur 22 Sudoeste 0 -- -- 53
2020-08-27 14:00:00 32.4 9 Sur 21 Sudeste 0 -- -- 52
2020-08-27 13:00:00 31.5 8 Sur 22 Sudeste 0 -- -- 55
2020-08-27 12:00:00 30.3 8 Sur 17 Sur 0 -- -- 56
2020-08-27 11:00:00 27.7 5 Sudoeste 12 Sur 0 -- -- 69
2020-08-27 10:00:00 24.7 0 Calma 5 Norte 0 -- -- 76
2020-08-27 09:00:00 22.6 0 Calma 5 Sudoeste 0 -- -- 88
2020-08-27 08:00:00 21.3 0 Calma 4 Norte 0 -- -- 92
2020-08-27 07:00:00 21.7 0 Calma 5 Sur 0 -- -- 93
2020-08-27 06:00:00 21.7 0 Calma 2 Sudoeste 0 -- -- 90
2020-08-27 05:00:00 22.3 0 Calma 2 Noroeste 0 -- -- 89
2020-08-27 04:00:00 22.5 0 Calma 4 Noroeste 0 -- -- 88
2020-08-27 03:00:00 23.2 0 Calma 3 Noroeste 0 -- -- 86
2020-08-27 02:00:00 23.8 0 Calma 3 Noroeste 0 -- -- 83
2020-08-27 01:00:00 24.8 0 Calma 5 Este 0 -- -- 81
2020-08-27 00:00:00 25.3 0 Calma 6 Sur 0 -- -- 79
2020-08-26 23:00:00 26 3 Sur 6 Sudoeste 0 -- -- 76
2020-08-26 22:00:00 26.4 4 Sur 12 Sudeste 0 -- -- 74
2020-08-26 21:00:00 27.2 4 Sur 13 Sudeste 0 -- -- 69
2020-08-26 20:00:00 28.6 5 Sur 14 Sudeste 0 -- -- 63
2020-08-26 19:00:00 30.8 6 Sur 18 Sudeste 0 -- -- 56
2020-08-26 18:00:00 32 9 Sudoeste 26 Sur 0 -- -- 52
2020-08-26 17:00:00 32.5 10 Sur 28 Sudoeste 0 -- -- 51
2020-08-26 16:00:00 33.4 10 Sur 28 Sudeste 0 -- -- 47
2020-08-26 15:00:00 33.2 12 Sur 26 Sur 0 -- -- 46
2020-08-26 14:00:00 32.6 10 Sudeste 24 Sudeste 0 -- -- 46
2020-08-26 13:00:00 32.7 8 Sur 25 Sudeste 0 -- -- 43
2020-08-26 12:00:00 31.2 10 Sur 20 Sudeste 0 -- -- 45
2020-08-26 11:00:00 28.9 9 Sur 17 Sudeste 0 -- -- 62
2020-08-26 10:00:00 25.2 3 Este 8 Sur 0 -- -- 79
2020-08-26 09:00:00 22.1 0 Calma 3 Norte 0 -- -- 87
2020-08-26 08:00:00 20.6 0 Calma 4 Noroeste 0 -- -- 89
2020-08-26 07:00:00 21.5 0 Calma 4 Norte 0 -- -- 93
2020-08-26 06:00:00 22 0 Calma 8 Sur 0 -- -- 96
2020-08-26 05:00:00 22.2 2 Sudeste 4 Sur 0 -- -- 95
2020-08-26 04:00:00 22.5 0 Calma 2 Sudeste 0 -- -- 92
2020-08-26 03:00:00 23.2 0 Calma 2 Noroeste 0 -- -- 92
2020-08-26 02:00:00 23.9 0 Calma 4 Norte 0 -- -- 88
2020-08-26 01:00:00 25.3 0 Calma 4 Sur 0 -- -- 85
2020-08-26 00:00:00 25.9 0 Calma 6 Sudeste 0 -- -- 82